»·PEaware :: DAL1809 KASE-KJAC

DAL1809 :: KASE-KJAC

FLIGHT INFORMATION

Flight Status: Arrived
Operator:
Delta Air Lines
More flights by this operator :: More flights under this callsign
Pilot: Patricio R. (14780)
Aircraft: MCDONNELL-DOUGLAS MD-88
(MD88)
More flights by this aircraft type
Origin: KASE Aspen-Pitkin Co/Sardy
United States
Destination: KJAC Jackson Hole
United States
More flights between these airports :: More routes between these airports
Route: +LINDZ8 EKR OCS BPI JAC
File this flight plan on PilotEdge
Remarks: PBN / A1B2 DOF / 171210 REG / N888SB EET / KZLC0026 OPR / DAL PER / C RMK / TCAS SIMBRIEF
Altitude:
(Current/Filed)
28,000ft
Speed:
(Current/Filed)
433kts
Departed: 09-Dec-17 06:45 PM
Arrived: 09-Dec-17 07:47 PM
Distance/Time
Traveled:
315nm/1:02
Distance/Time
To Go:
Arrived

Flight Plot

Page will automatically refresh every two minutes.

Flight plan parsing failed; only flown route is shown


Map Options




Map Legend


Flown Route
Filed Route
Departure Airport
Arrival Airport
Navaid (VOR, NDB)
Fix

Horizontal Profiles

Position Reports

Time Latitude Longitude Heading Altitude Ground
Speed
09-Dec-17 18:09 39.219906 -106.865373 161 7779ft 0kts
09-Dec-17 18:10 39.219906 -106.865373 161 7779ft 0kts
09-Dec-17 18:11 39.219906 -106.865373 161 7779ft 0kts
09-Dec-17 18:12 39.219906 -106.865373 161 7779ft 0kts
09-Dec-17 18:13 39.219906 -106.865373 161 7779ft 0kts
09-Dec-17 18:14 39.219906 -106.865373 161 7779ft 0kts
09-Dec-17 18:15 39.219906 -106.865373 161 7779ft 0kts
09-Dec-17 18:16 39.219906 -106.865373 161 7779ft 0kts
09-Dec-17 18:17 39.219906 -106.865373 161 7779ft 0kts
09-Dec-17 18:18 39.219906 -106.865373 161 7779ft 0kts
09-Dec-17 18:19 39.219906 -106.865373 161 7779ft 0kts
09-Dec-17 18:20 39.219906 -106.865373 161 7779ft 0kts
09-Dec-17 18:21 39.219906 -106.865373 161 7779ft 0kts
09-Dec-17 18:22 39.219906 -106.865373 161 7779ft 0kts
09-Dec-17 18:23 39.219906 -106.865373 161 7779ft 0kts
09-Dec-17 18:24 39.219906 -106.865373 161 7779ft 0kts
09-Dec-17 18:25 39.219906 -106.865373 161 7779ft 0kts
09-Dec-17 18:26 39.219906 -106.865373 161 7779ft 0kts
09-Dec-17 18:26 39.219906 -106.865373 161 7779ft 0kts
09-Dec-17 18:28 39.219906 -106.865373 161 7779ft 0kts
09-Dec-17 18:28 39.219906 -106.865373 161 7779ft 0kts
09-Dec-17 18:30 39.219906 -106.865373 161 7779ft 0kts
09-Dec-17 18:31 39.219906 -106.865373 161 7779ft 0kts
09-Dec-17 18:31 39.219906 -106.865373 161 7779ft 0kts
09-Dec-17 18:33 39.219906 -106.865373 161 7779ft 0kts
09-Dec-17 18:33 39.219906 -106.865373 161 7779ft 0kts
09-Dec-17 18:34 39.219906 -106.865373 161 7779ft 0kts
09-Dec-17 18:36 39.219906 -106.865373 161 7779ft 0kts
09-Dec-17 18:36 39.219906 -106.865373 161 7779ft 0kts
09-Dec-17 18:37 39.219906 -106.865373 161 7779ft 0kts
09-Dec-17 18:38 39.219906 -106.865373 161 7779ft 0kts
09-Dec-17 18:39 39.219906 -106.865373 161 7779ft 0kts
09-Dec-17 18:40 39.219875 -106.865377 191 7779ft 0kts
09-Dec-17 18:41 39.216803 -106.864638 159 7779ft 14kts
09-Dec-17 18:42 39.213954 -106.863283 159 7779ft 4kts
09-Dec-17 18:43 39.213709 -106.863164 159 7779ft 1kts
09-Dec-17 18:44 39.213339 -106.862984 159 7779ft 0kts
09-Dec-17 18:45 39.213059 -106.862850 159 7779ft 3kts
09-Dec-17 18:46 39.212209 -106.862540 189 7779ft 0kts
09-Dec-17 18:47 39.211672 -106.863244 264 7779ft 1kts
09-Dec-17 18:48 39.211723 -106.863328 325 7779ft 0kts
09-Dec-17 18:49 39.211734 -106.863338 325 7779ft 0kts
09-Dec-17 18:50 39.213192 -106.864107 339 7779ft 51kts
09-Dec-17 18:51 39.249882 -106.881060 347 8235ft 191kts
09-Dec-17 18:52 39.293979 -106.912491 284 9576ft 224kts
09-Dec-17 18:53 39.308631 -107.000463 282 11152ft 268kts
09-Dec-17 18:54 39.334633 -107.090181 313 13343ft 281kts
09-Dec-17 18:55 39.386254 -107.170561 280 15156ft 306kts
09-Dec-17 18:56 39.366478 -107.278527 254 17133ft 319kts
09-Dec-17 18:57 39.343244 -107.390782 255 19078ft 329kts
09-Dec-17 18:58 39.320382 -107.506578 256 20899ft 338kts
09-Dec-17 18:59 39.316678 -107.618679 306 22296ft 331kts
09-Dec-17 19:00 39.393010 -107.669213 348 23849ft 324kts
09-Dec-17 19:01 39.465863 -107.695419 347 24748ft 344kts
09-Dec-17 19:02 39.561414 -107.732133 348 25568ft 373kts
09-Dec-17 19:03 39.664207 -107.771008 345 26467ft 398kts
09-Dec-17 19:04 39.770611 -107.811461 338 28324ft 388kts
09-Dec-17 19:05 39.872666 -107.850637 338 28549ft 396kts
09-Dec-17 19:06 39.981926 -107.892330 339 28546ft 423kts
09-Dec-17 19:07 40.094663 -107.942472 327 28537ft 426kts
09-Dec-17 19:08 40.193179 -108.013891 326 28533ft 424kts
09-Dec-17 19:09 40.296145 -108.087947 327 28533ft 424kts
09-Dec-17 19:10 40.399421 -108.162131 327 28533ft 425kts
09-Dec-17 19:11 40.502126 -108.235871 327 28560ft 423kts
09-Dec-17 19:12 40.605245 -108.309879 327 28559ft 423kts
09-Dec-17 19:13 40.708215 -108.383748 327 28559ft 423kts
09-Dec-17 19:14 40.811134 -108.457551 327 28558ft 424kts
09-Dec-17 19:15 40.914717 -108.531799 327 28559ft 425kts
09-Dec-17 19:16 41.018468 -108.606136 327 28538ft 426kts
09-Dec-17 19:17 41.119479 -108.678473 327 28508ft 428kts
09-Dec-17 19:18 41.221921 -108.751805 327 28508ft 428kts
09-Dec-17 19:19 41.326584 -108.826695 327 28508ft 428kts
09-Dec-17 19:20 41.431431 -108.901683 327 28508ft 428kts
09-Dec-17 19:21 41.536275 -108.976573 327 28508ft 429kts
09-Dec-17 19:22 41.634883 -109.062832 316 28510ft 423kts
09-Dec-17 19:23 41.724999 -109.163525 316 28507ft 423kts
09-Dec-17 19:24 41.815117 -109.263739 318 28513ft 416kts
09-Dec-17 19:25 41.902488 -109.360728 322 28505ft 409kts
09-Dec-17 19:26 41.990428 -109.458130 322 28503ft 410kts
09-Dec-17 19:27 42.078153 -109.555304 323 28529ft 409kts
09-Dec-17 19:28 42.164273 -109.650610 322 28536ft 409kts
09-Dec-17 19:29 42.252121 -109.747774 322 28541ft 411kts
09-Dec-17 19:30 42.340253 -109.845116 322 28535ft 410kts
09-Dec-17 19:31 42.428419 -109.942424 322 28510ft 410kts
09-Dec-17 19:32 42.516581 -110.039643 322 28533ft 410kts
09-Dec-17 19:33 42.609298 -110.127979 336 28535ft 408kts
09-Dec-17 19:34 42.715417 -110.179541 357 28497ft 407kts
09-Dec-17 19:35 42.828085 -110.188656 354 28505ft 407kts
09-Dec-17 19:36 42.940925 -110.204739 353 27928ft 407kts
09-Dec-17 19:37 43.052342 -110.221153 353 26902ft 403kts
09-Dec-17 19:38 43.162121 -110.237354 353 25730ft 398kts
09-Dec-17 19:39 43.268950 -110.253114 353 24580ft 382kts
09-Dec-17 19:40 43.373036 -110.268471 353 23577ft 377kts
09-Dec-17 19:41 43.476186 -110.283689 353 22217ft 367kts
09-Dec-17 19:42 43.574751 -110.298218 353 20576ft 351kts
09-Dec-17 19:43 43.670013 -110.312260 353 18847ft 336kts
09-Dec-17 19:44 43.758140 -110.325234 353 17070ft 304kts
09-Dec-17 19:45 43.823839 -110.376205 297 15534ft 269kts
09-Dec-17 19:46 43.819753 -110.476206 268 13767ft 257kts
09-Dec-17 19:47 43.802954 -110.569520 249 11978ft 251kts
09-Dec-17 19:48 43.768126 -110.645710 212 10093ft 226kts
09-Dec-17 19:49 43.721701 -110.681537 201 8689ft 177kts
09-Dec-17 19:50 43.676559 -110.704103 199 7730ft 170kts
09-Dec-17 19:51 43.634403 -110.724737 198 6908ft 155kts
09-Dec-17 19:52 43.600039 -110.741277 178 6426ft 16kts
09-Dec-17 19:54 43.600330 -110.739563 19 6426ft 5kts
09-Dec-17 19:55 43.602366 -110.738451 61 6426ft 2kts
09-Dec-17 19:56 43.602354 -110.738111 105 6426ft 0kts
09-Dec-17 19:57 43.602294 -110.737827 109 6426ft 0kts

Navigation Log

Ident Type
Flight plan parsing failed, navigation log unavailable